createdAt,value
2023-05-22T00:00:27.740Z,15.83
2023-05-22T00:03:17.133Z,15.79
2023-05-22T00:05:48.570Z,15.76
2023-05-22T00:08:18.010Z,15.74
2023-05-22T00:10:47.499Z,15.71
2023-05-22T00:13:17.004Z,15.68
2023-05-22T00:15:46.619Z,15.66
2023-05-22T00:18:16.067Z,15.63
2023-05-22T00:20:46.665Z,15.58
2023-05-22T00:23:17.448Z,15.54
2023-05-22T00:25:46.872Z,15.50
2023-05-22T00:28:16.311Z,15.47
2023-05-22T00:30:46.314Z,15.46
2023-05-22T00:33:16.269Z,15.43
2023-05-22T00:35:45.774Z,15.39
2023-05-22T00:38:38.001Z,15.39
2023-05-22T00:41:10.996Z,15.36
2023-05-22T00:43:40.549Z,15.32
2023-05-22T00:46:10.489Z,15.28
2023-05-22T00:48:40.078Z,15.24
2023-05-22T00:51:09.489Z,15.20
2023-05-22T00:53:39.063Z,15.16
2023-05-22T00:56:08.541Z,15.13
2023-05-22T00:58:38.251Z,15.12
2023-05-22T01:01:09.910Z,15.12
2023-05-22T01:03:51.058Z,15.12
2023-05-22T01:06:21.708Z,15.12
2023-05-22T01:08:51.223Z,15.12
2023-05-22T01:11:58.819Z,15.10
2023-05-22T01:14:53.879Z,15.09
2023-05-22T01:17:55.958Z,15.09
2023-05-22T01:20:35.145Z,15.08
2023-05-22T01:24:01.075Z,15.06
2023-05-22T01:26:59.167Z,15.03
2023-05-22T01:30:07.918Z,15.00
2023-05-22T01:32:42.127Z,14.97
2023-05-22T01:35:15.598Z,14.93
2023-05-22T01:37:46.198Z,14.90
2023-05-22T01:40:17.492Z,14.85
2023-05-22T01:42:47.291Z,14.79
2023-05-22T01:45:22.176Z,14.76
2023-05-22T01:47:55.578Z,14.72
2023-05-22T01:50:26.716Z,14.69
2023-05-22T01:53:24.427Z,14.63
2023-05-22T01:56:16.338Z,14.59
2023-05-22T01:59:27.898Z,14.54
2023-05-22T02:02:06.521Z,14.51
2023-05-22T02:04:42.635Z,14.49
2023-05-22T02:07:15.765Z,14.49
2023-05-22T02:09:51.499Z,14.50
2023-05-22T02:12:23.113Z,14.52
2023-05-22T02:14:53.579Z,14.49
2023-05-22T02:17:25.985Z,14.48
2023-05-22T02:19:55.781Z,14.49
2023-05-22T02:22:25.449Z,14.50
2023-05-22T02:24:54.894Z,14.49
2023-05-22T02:27:24.939Z,14.48
2023-05-22T02:29:54.365Z,14.45
2023-05-22T02:32:23.680Z,14.43
2023-05-22T02:34:54.642Z,14.43
2023-05-22T02:37:24.171Z,14.45
2023-05-22T02:39:53.686Z,14.47
2023-05-22T02:42:23.164Z,14.50
2023-05-22T02:44:52.543Z,14.53
2023-05-22T02:47:22.057Z,14.56
2023-05-22T02:49:52.066Z,14.58
2023-05-22T02:52:22.773Z,14.59
2023-05-22T02:54:52.320Z,14.61
2023-05-22T02:57:22.471Z,14.62
2023-05-22T02:59:54.170Z,14.63
2023-05-22T03:02:28.733Z,14.63
2023-05-22T03:05:01.451Z,14.65
2023-05-22T03:07:30.739Z,14.65
2023-05-22T03:10:00.528Z,14.64
2023-05-22T03:12:31.270Z,14.66
2023-05-22T03:15:02.685Z,14.68
2023-05-22T03:17:32.635Z,14.71
2023-05-22T03:20:02.249Z,14.73
2023-05-22T03:22:31.991Z,14.75
2023-05-22T03:25:01.932Z,14.78
2023-05-22T03:27:32.378Z,14.82
2023-05-22T03:30:06.884Z,14.87
2023-05-22T03:32:38.044Z,14.93
2023-05-22T03:35:08.939Z,14.99
2023-05-22T03:37:39.418Z,15.06
2023-05-22T03:40:10.727Z,15.12
2023-05-22T03:42:41.818Z,15.19
2023-05-22T03:45:11.781Z,15.26
2023-05-22T03:47:41.580Z,15.32
2023-05-22T03:50:11.686Z,15.38
2023-05-22T03:52:41.115Z,15.44
2023-05-22T03:55:11.032Z,15.50
2023-05-22T03:57:40.928Z,15.55
2023-05-22T04:00:12.073Z,15.60
2023-05-22T04:02:45.548Z,15.65
2023-05-22T04:05:15.674Z,15.69
2023-05-22T04:07:46.355Z,15.74
2023-05-22T04:10:16.893Z,15.79
2023-05-22T04:12:46.295Z,15.85
2023-05-22T04:15:16.203Z,15.89
2023-05-22T04:17:47.470Z,15.94
2023-05-22T04:20:17.154Z,15.99
2023-05-22T04:22:51.398Z,16.02
2023-05-22T04:25:22.830Z,16.06
2023-05-22T04:27:52.458Z,16.11
2023-05-22T04:30:25.804Z,16.14
2023-05-22T04:32:55.213Z,16.16
2023-05-22T04:35:25.384Z,16.16
2023-05-22T04:37:56.347Z,16.16
2023-05-22T04:40:34.777Z,16.19
2023-05-22T04:43:04.552Z,16.22
2023-05-22T04:45:33.995Z,16.25
2023-05-22T04:48:04.248Z,16.31
2023-05-22T04:50:40.493Z,16.37
2023-05-22T04:53:10.184Z,16.40
2023-05-22T04:55:40.046Z,16.41
2023-05-22T04:58:09.671Z,16.46
2023-05-22T05:00:39.262Z,16.54
2023-05-22T05:03:12.003Z,16.60
2023-05-22T05:05:41.756Z,16.68
2023-05-22T05:08:11.372Z,16.78
2023-05-22T05:10:42.015Z,16.89
2023-05-22T05:13:11.599Z,16.97
2023-05-22T05:15:42.314Z,17.05
2023-05-22T05:18:12.713Z,17.11
2023-05-22T05:20:42.730Z,17.17
2023-05-22T05:23:14.382Z,17.24
2023-05-22T05:25:44.052Z,17.32
2023-05-22T05:28:13.554Z,17.41
2023-05-22T05:30:44.310Z,17.53
2023-05-22T05:33:26.609Z,17.65
2023-05-22T05:36:21.879Z,17.77
2023-05-22T05:38:51.746Z,17.88
2023-05-22T05:41:21.849Z,18.00
2023-05-22T05:44:02.276Z,18.16
2023-05-22T05:46:34.172Z,18.32
2023-05-22T05:49:11.469Z,18.45
2023-05-22T05:51:45.351Z,18.58
2023-05-22T05:54:15.734Z,18.67
2023-05-22T05:56:46.459Z,18.72
2023-05-22T05:59:18.964Z,18.77
2023-05-22T06:02:35.613Z,18.85
2023-05-22T06:05:06.182Z,18.94
2023-05-22T06:07:38.316Z,19.02
2023-05-22T06:10:11.041Z,19.12
2023-05-22T06:12:53.832Z,19.19
2023-05-22T06:15:23.558Z,19.26
2023-05-22T06:17:53.740Z,19.32
2023-05-22T06:20:25.322Z,19.40
2023-05-22T06:22:55.775Z,19.49
2023-05-22T06:25:30.467Z,19.57
2023-05-22T06:28:03.257Z,19.67
2023-05-22T06:33:09.142Z,19.82
2023-05-22T06:35:38.799Z,19.94
2023-05-22T06:38:08.436Z,20.05
2023-05-22T06:40:38.404Z,20.14
2023-05-22T06:43:19.150Z,20.20
2023-05-22T06:45:53.591Z,20.25
2023-05-22T06:48:26.039Z,20.30
2023-05-22T06:51:36.235Z,20.39
2023-05-22T06:54:12.571Z,20.45
2023-05-22T06:56:43.636Z,20.51
2023-05-22T06:59:22.569Z,20.55
2023-05-22T07:02:08.523Z,20.62
2023-05-22T07:05:19.297Z,20.76
2023-05-22T07:07:53.704Z,20.86
2023-05-22T07:10:25.262Z,20.96
2023-05-22T07:12:55.224Z,21.06
2023-05-22T07:15:24.756Z,21.17
2023-05-22T07:17:56.150Z,21.31
2023-05-22T07:20:27.764Z,21.44
2023-05-22T07:23:14.275Z,21.55
2023-05-22T07:25:47.226Z,21.73
2023-05-22T07:28:18.678Z,21.88
2023-05-22T07:31:03.717Z,21.95
2023-05-22T07:33:37.754Z,22.05
2023-05-22T07:36:07.530Z,22.12
2023-05-22T07:38:39.088Z,22.16
2023-05-22T07:41:09.388Z,22.28
2023-05-22T07:43:40.110Z,22.39
2023-05-22T07:46:11.935Z,22.50
2023-05-22T07:48:50.524Z,22.58
2023-05-22T07:51:20.874Z,22.63
2023-05-22T07:53:54.060Z,22.72
2023-05-22T07:56:26.038Z,22.82
2023-05-22T07:58:56.315Z,22.87
2023-05-22T08:01:26.307Z,22.95
2023-05-22T08:03:59.638Z,23.05
2023-05-22T08:06:34.864Z,23.19
2023-05-22T08:09:08.376Z,23.27
2023-05-22T08:11:40.250Z,23.32
2023-05-22T08:14:11.202Z,23.32
2023-05-22T08:16:40.955Z,23.40
2023-05-22T08:19:10.707Z,23.53
2023-05-22T08:21:40.694Z,23.64
2023-05-22T08:24:10.639Z,23.75
2023-05-22T08:26:41.487Z,23.90
2023-05-22T08:29:12.057Z,23.94
2023-05-22T08:31:41.965Z,23.97
2023-05-22T08:34:13.740Z,24.06
2023-05-22T08:36:44.649Z,24.18
2023-05-22T08:39:14.714Z,24.28
2023-05-22T08:41:47.785Z,24.34
2023-05-22T08:44:17.691Z,24.41
2023-05-22T08:46:48.844Z,24.44
2023-05-22T08:49:24.205Z,24.49
2023-05-22T08:52:05.313Z,24.55
2023-05-22T08:54:40.144Z,24.70
2023-05-22T08:57:12.400Z,24.83
2023-05-22T08:59:44.754Z,24.90
2023-05-22T09:02:17.665Z,24.95
2023-05-22T09:04:52.553Z,25.05
2023-05-22T09:07:25.350Z,25.13
2023-05-22T09:09:55.309Z,25.18
2023-05-22T09:12:30.094Z,25.26
2023-05-22T09:15:13.533Z,25.30
2023-05-22T09:17:47.014Z,25.40
2023-05-22T09:20:17.395Z,25.54
2023-05-22T09:22:49.328Z,25.69
2023-05-22T09:25:23.418Z,25.80
2023-05-22T09:27:54.484Z,25.89
2023-05-22T09:30:24.537Z,25.96
2023-05-22T09:32:58.902Z,26.08
2023-05-22T09:35:39.245Z,26.16
2023-05-22T09:38:21.228Z,26.15
2023-05-22T09:44:17.404Z,25.86
2023-05-22T10:02:13.622Z,26.13
2023-05-22T10:04:53.128Z,26.20
2023-05-22T10:08:22.623Z,26.40
2023-05-22T10:10:53.557Z,26.59
2023-05-22T10:13:26.544Z,26.66
2023-05-22T10:16:00.262Z,26.80
2023-05-22T10:18:30.842Z,26.84
2023-05-22T10:21:01.649Z,26.87
2023-05-22T10:23:31.739Z,26.87
2023-05-22T10:26:01.978Z,26.86
2023-05-22T10:29:02.304Z,26.86
2023-05-22T10:32:20.415Z,26.75
2023-05-22T10:34:57.566Z,26.88
2023-05-22T10:38:03.854Z,26.89
2023-05-22T10:40:36.132Z,26.92
2023-05-22T10:43:17.911Z,27.04
2023-05-22T10:45:48.241Z,27.21
2023-05-22T10:48:25.545Z,27.39
2023-05-22T10:50:59.831Z,27.47
2023-05-22T10:53:37.644Z,27.38
2023-05-22T10:56:16.422Z,27.22
2023-05-22T10:59:08.927Z,27.22
2023-05-22T11:01:38.748Z,27.35
2023-05-22T11:04:29.469Z,27.52
2023-05-22T11:07:15.380Z,27.59
2023-05-22T11:09:48.535Z,27.70
2023-05-22T11:12:30.581Z,27.82
2023-05-22T11:15:11.371Z,27.63
2023-05-22T11:17:46.920Z,27.52
2023-05-22T11:20:21.251Z,27.62
2023-05-22T11:23:07.197Z,27.66
2023-05-22T11:25:40.478Z,27.74
2023-05-22T11:28:12.125Z,27.83
2023-05-22T11:30:45.938Z,27.92
2023-05-22T11:33:29.462Z,27.97
2023-05-22T11:36:02.333Z,27.98
2023-05-22T11:38:42.607Z,28.02
2023-05-22T11:41:13.394Z,28.08
2023-05-22T11:43:45.411Z,28.16
2023-05-22T11:46:21.609Z,28.29
2023-05-22T11:48:54.032Z,28.36
2023-05-22T11:51:23.609Z,28.49
2023-05-22T11:53:53.451Z,28.61
2023-05-22T11:56:23.209Z,28.67
2023-05-22T11:58:53.420Z,28.54
2023-05-22T12:01:23.276Z,28.32
2023-05-22T12:03:55.371Z,28.14
2023-05-22T12:06:25.143Z,28.28
2023-05-22T12:08:56.824Z,28.43
2023-05-22T12:11:33.645Z,28.52
2023-05-22T12:14:04.836Z,28.42
2023-05-22T12:16:36.826Z,28.23
2023-05-22T12:19:11.308Z,28.26
2023-05-22T12:21:42.536Z,28.32
2023-05-22T12:24:12.546Z,28.26
2023-05-22T12:26:56.347Z,28.18
2023-05-22T12:29:30.963Z,28.24
2023-05-22T12:32:09.808Z,28.34
2023-05-22T12:34:50.991Z,28.44
2023-05-22T12:37:26.040Z,28.56
2023-05-22T12:40:01.608Z,28.77
2023-05-22T12:42:31.267Z,28.78
2023-05-22T12:45:00.904Z,28.75
2023-05-22T12:47:30.743Z,28.98
2023-05-22T12:50:00.533Z,29.20
2023-05-22T12:52:29.934Z,29.30
2023-05-22T12:55:03.451Z,29.40
2023-05-22T12:57:37.676Z,29.52
2023-05-22T13:00:12.732Z,29.57
2023-05-22T13:02:43.985Z,29.62
2023-05-22T13:05:17.474Z,29.74
2023-05-22T13:07:47.363Z,29.80
2023-05-22T13:10:17.023Z,29.89
2023-05-22T13:12:51.641Z,29.94
2023-05-22T13:15:22.416Z,29.64
2023-05-22T13:17:51.908Z,29.59
2023-05-22T13:20:22.207Z,29.75
2023-05-22T13:22:51.870Z,29.99
2023-05-22T13:25:23.936Z,30.17
2023-05-22T13:27:53.311Z,30.20
2023-05-22T13:30:26.238Z,30.19
2023-05-22T13:32:57.668Z,30.17
2023-05-22T13:35:27.372Z,30.32
2023-05-22T13:37:59.255Z,30.20
2023-05-22T13:40:28.776Z,30.24
2023-05-22T13:43:07.470Z,30.30
2023-05-22T13:45:37.032Z,30.32
2023-05-22T13:48:09.189Z,30.25
2023-05-22T13:50:39.584Z,30.25
2023-05-22T13:53:09.705Z,30.22
2023-05-22T13:55:39.342Z,30.27
2023-05-22T13:58:10.805Z,30.32
2023-05-22T14:00:42.086Z,30.44
2023-05-22T14:03:17.566Z,30.38
2023-05-22T14:05:49.062Z,30.27
2023-05-22T14:08:18.412Z,29.91
2023-05-22T14:10:47.901Z,29.69
2023-05-22T14:13:17.210Z,29.24
2023-05-22T14:15:49.680Z,28.76
2023-05-22T14:18:19.468Z,28.16
2023-05-22T14:20:49.008Z,27.42
2023-05-22T14:23:18.612Z,26.69
2023-05-22T14:25:48.092Z,26.27
2023-05-22T14:28:17.630Z,25.86
2023-05-22T14:30:47.335Z,25.72
2023-05-22T14:33:18.221Z,25.64
2023-05-22T14:35:48.775Z,25.74
2023-05-22T14:38:18.247Z,25.85
2023-05-22T14:40:47.650Z,25.92
2023-05-22T14:43:16.945Z,25.94
2023-05-22T14:45:46.726Z,25.91
2023-05-22T14:48:16.193Z,25.93
2023-05-22T14:50:47.994Z,25.89
2023-05-22T14:53:17.439Z,25.97
2023-05-22T14:55:47.802Z,25.96
2023-05-22T14:58:17.519Z,26.06
2023-05-22T15:00:47.716Z,26.24
2023-05-22T15:03:19.085Z,26.42
2023-05-22T15:05:48.970Z,26.60
2023-05-22T15:08:20.965Z,26.58
2023-05-22T15:10:50.600Z,26.63
2023-05-22T15:13:21.605Z,26.68
2023-05-22T15:15:51.399Z,26.72
2023-05-22T15:18:20.969Z,26.89
2023-05-22T15:20:50.799Z,26.97
2023-05-22T15:23:25.465Z,27.04
2023-05-22T15:25:55.142Z,26.83
2023-05-22T15:28:26.002Z,26.58
2023-05-22T15:30:55.851Z,26.47
2023-05-22T15:33:25.263Z,26.39
2023-05-22T15:35:55.011Z,26.33
2023-05-22T15:38:24.600Z,26.22
2023-05-22T15:40:59.632Z,26.19
2023-05-22T15:43:29.670Z,26.12
2023-05-22T15:45:59.210Z,26.13
2023-05-22T15:48:32.436Z,26.11
2023-05-22T15:51:02.025Z,26.00
2023-05-22T15:53:31.959Z,25.98
2023-05-22T15:56:01.503Z,25.88
2023-05-22T15:58:30.983Z,25.69
2023-05-22T16:01:00.370Z,25.47
2023-05-22T16:03:29.941Z,25.26
2023-05-22T16:05:59.347Z,25.08
2023-05-22T16:08:28.993Z,24.87
2023-05-22T16:11:00.970Z,24.60
2023-05-22T16:13:30.634Z,24.54
2023-05-22T16:16:00.006Z,24.52
2023-05-22T16:18:29.313Z,24.44
2023-05-22T16:20:59.208Z,24.21
2023-05-22T16:23:28.587Z,23.90
2023-05-22T16:25:57.982Z,23.59
2023-05-22T16:28:27.409Z,23.32
2023-05-22T16:30:56.817Z,23.12
2023-05-22T16:33:26.611Z,22.94
2023-05-22T16:35:56.151Z,22.86
2023-05-22T16:38:25.661Z,22.79
2023-05-22T16:40:55.319Z,22.74
2023-05-22T16:43:24.853Z,22.61
2023-05-22T16:45:54.241Z,22.54
2023-05-22T16:48:23.819Z,22.48
2023-05-22T16:50:54.283Z,22.43
2023-05-22T16:53:23.915Z,22.39
2023-05-22T16:55:53.397Z,22.32
2023-05-22T16:58:22.849Z,22.23
2023-05-22T17:00:53.604Z,22.15
2023-05-22T17:03:23.269Z,22.02
2023-05-22T17:05:53.079Z,21.96
2023-05-22T17:08:22.428Z,21.88
2023-05-22T17:10:51.718Z,21.80
2023-05-22T17:13:21.664Z,21.72
2023-05-22T17:15:52.067Z,21.64
2023-05-22T17:18:21.541Z,21.56
2023-05-22T17:20:55.080Z,21.51
2023-05-22T17:23:24.386Z,21.48
2023-05-22T17:25:55.313Z,21.39
2023-05-22T17:28:24.543Z,21.33
2023-05-22T17:30:54.289Z,21.24
2023-05-22T17:33:25.277Z,21.19
2023-05-22T17:35:54.639Z,21.14
2023-05-22T17:38:25.562Z,21.10
2023-05-22T17:40:55.030Z,21.06
2023-05-22T17:43:24.336Z,21.02
2023-05-22T17:45:54.524Z,20.97
2023-05-22T17:48:27.761Z,20.94
2023-05-22T17:50:57.702Z,20.92
2023-05-22T17:53:34.349Z,20.90
2023-05-22T17:56:06.520Z,20.88
2023-05-22T17:58:35.842Z,20.87
2023-05-22T18:01:05.353Z,20.84
2023-05-22T18:03:34.750Z,20.82
2023-05-22T18:06:08.062Z,20.78
2023-05-22T18:08:37.591Z,20.73
2023-05-22T18:11:06.953Z,20.69
2023-05-22T18:13:37.107Z,20.65
2023-05-22T18:16:07.025Z,20.61
2023-05-22T18:18:36.986Z,20.58
2023-05-22T18:21:09.139Z,20.56
2023-05-22T18:23:38.874Z,20.52
2023-05-22T18:26:09.814Z,20.48
2023-05-22T18:28:39.170Z,20.46
2023-05-22T18:31:09.121Z,20.42
2023-05-22T18:33:41.109Z,20.35
2023-05-22T18:36:11.184Z,20.30
2023-05-22T18:38:40.628Z,20.27
2023-05-22T18:41:09.998Z,20.25
2023-05-22T18:43:39.570Z,20.22
2023-05-22T18:46:08.852Z,20.17
2023-05-22T18:48:38.240Z,20.14
2023-05-22T18:51:07.661Z,20.11
2023-05-22T18:53:36.999Z,20.08
2023-05-22T18:56:06.349Z,20.06
2023-05-22T18:58:37.794Z,20.03
2023-05-22T19:01:11.129Z,20.00
2023-05-22T19:03:41.341Z,19.98
2023-05-22T19:06:10.761Z,19.96
2023-05-22T19:08:40.541Z,19.92
2023-05-22T19:11:09.995Z,19.88
2023-05-22T19:13:41.321Z,19.83
2023-05-22T19:16:11.602Z,19.80
2023-05-22T19:18:41.012Z,19.77
2023-05-22T19:21:10.688Z,19.75
2023-05-22T19:23:40.032Z,19.74
2023-05-22T19:26:09.467Z,19.70
2023-05-22T19:28:38.947Z,19.66
2023-05-22T19:31:08.346Z,19.63
2023-05-22T19:33:37.735Z,19.59
2023-05-22T19:36:07.470Z,19.56
2023-05-22T19:38:36.965Z,19.52
2023-05-22T19:41:06.352Z,19.50
2023-05-22T19:43:35.913Z,19.48
2023-05-22T19:46:08.545Z,19.47
2023-05-22T19:48:38.504Z,19.46
2023-05-22T19:51:08.901Z,19.45
2023-05-22T19:53:38.263Z,19.44
2023-05-22T19:56:07.583Z,19.42
2023-05-22T19:58:38.134Z,19.39
2023-05-22T20:01:07.471Z,19.37
2023-05-22T20:03:37.044Z,19.35
2023-05-22T20:06:07.520Z,19.32
2023-05-22T20:08:39.148Z,19.28
2023-05-22T20:11:08.786Z,19.22
2023-05-22T20:13:38.295Z,19.17
2023-05-22T20:16:11.952Z,19.11
2023-05-22T20:18:42.140Z,19.04
2023-05-22T20:21:11.466Z,19.01
2023-05-22T20:23:40.729Z,18.99
2023-05-22T20:26:10.025Z,18.96
2023-05-22T20:28:39.471Z,18.92
2023-05-22T20:31:08.953Z,18.87
2023-05-22T20:33:38.301Z,18.83
2023-05-22T20:36:08.845Z,18.78
2023-05-22T20:38:38.168Z,18.73
2023-05-22T20:41:09.515Z,18.68
2023-05-22T20:43:43.575Z,18.62
2023-05-22T20:46:13.211Z,18.60
2023-05-22T20:48:47.150Z,18.57
2023-05-22T20:51:18.401Z,18.55
2023-05-22T20:53:52.643Z,18.51
2023-05-22T20:56:23.461Z,18.49
2023-05-22T20:58:54.646Z,18.49
2023-05-22T21:01:25.013Z,18.49
2023-05-22T21:03:56.645Z,18.47
2023-05-22T21:06:26.117Z,18.44
2023-05-22T21:09:01.848Z,18.39
2023-05-22T21:11:31.226Z,18.38
2023-05-22T21:14:00.640Z,18.37
2023-05-22T21:16:30.538Z,18.36
2023-05-22T21:19:07.603Z,18.37
2023-05-22T21:21:41.695Z,18.35
2023-05-22T21:24:11.408Z,18.34
2023-05-22T21:26:41.032Z,18.32
2023-05-22T21:29:10.969Z,18.31
2023-05-22T21:31:40.224Z,18.29
2023-05-22T21:34:09.960Z,18.24
2023-05-22T21:36:39.250Z,18.18
2023-05-22T21:39:11.891Z,18.13
2023-05-22T21:41:41.644Z,18.05
2023-05-22T21:44:11.614Z,18.01
2023-05-22T21:46:41.093Z,17.97
2023-05-22T21:49:10.535Z,17.93
2023-05-22T21:51:40.787Z,17.89
2023-05-22T21:54:11.086Z,17.85
2023-05-22T21:56:41.187Z,17.81
2023-05-22T21:59:12.241Z,17.79
2023-05-22T22:01:45.257Z,17.75
2023-05-22T22:04:14.704Z,17.72
2023-05-22T22:06:53.095Z,17.64
2023-05-22T22:09:30.998Z,17.60
2023-05-22T22:12:01.903Z,17.57
2023-05-22T22:14:41.087Z,17.56
2023-05-22T22:17:10.551Z,17.53
2023-05-22T22:19:41.949Z,17.51
2023-05-22T22:22:12.695Z,17.46
2023-05-22T22:24:42.077Z,17.43
2023-05-22T22:27:11.380Z,17.39
2023-05-22T22:29:43.531Z,17.35
2023-05-22T22:32:13.365Z,17.32
2023-05-22T22:34:45.408Z,17.29
2023-05-22T22:37:15.190Z,17.27
2023-05-22T22:39:46.621Z,17.25
2023-05-22T22:42:15.977Z,17.24
2023-05-22T22:44:45.497Z,17.24
2023-05-22T22:47:15.116Z,17.22
2023-05-22T22:49:45.849Z,17.19
2023-05-22T22:52:19.359Z,17.18
2023-05-22T22:54:51.821Z,17.16
2023-05-22T22:57:21.016Z,17.14
2023-05-22T22:59:51.093Z,17.12
2023-05-22T23:02:20.458Z,17.10
2023-05-22T23:04:58.428Z,17.07
2023-05-22T23:07:29.574Z,17.04
2023-05-22T23:09:59.407Z,17.02
2023-05-22T23:12:29.220Z,16.99
2023-05-22T23:14:58.664Z,16.96
2023-05-22T23:17:28.054Z,16.92
2023-05-22T23:19:57.619Z,16.89
2023-05-22T23:22:32.239Z,16.84
2023-05-22T23:25:03.283Z,16.79
2023-05-22T23:27:33.737Z,16.73
2023-05-22T23:30:06.465Z,16.69
2023-05-22T23:32:35.951Z,16.65
2023-05-22T23:35:11.265Z,16.62
2023-05-22T23:37:42.290Z,16.59
2023-05-22T23:40:12.168Z,16.57
2023-05-22T23:42:41.719Z,16.55
2023-05-22T23:45:11.364Z,16.52
2023-05-22T23:47:42.296Z,16.47
2023-05-22T23:50:11.818Z,16.41
2023-05-22T23:52:41.425Z,16.35
2023-05-22T23:55:11.099Z,16.28
2023-05-22T23:57:40.538Z,16.21
